Terminal Aerodrome Forecast
Issued by NWS

Home | Current Version | Previous Version | Text Only | Print | Product List | Glossary Off
Versions: 1 2 3 4 5 6 7 8 9 10 11 12 13 14 15 16 17 18 19 20 21 22 23 24 25 26

000
FTUS43 KABR 290400 AAC
TAFATY
TAF AMD
KATY 290414Z 2904/2924 03015KT P6SM OVC009
     FM291000 03010KT P6SM OVC004
     FM291800 06008KT P6SM OVC015
      AMD NOT SKED=

USA.gov is the U.S. government's official web portal to all federal, state and local government web resources and services.